createdAt,value
2023-03-01T00:01:51.465Z,72.20
2023-03-01T00:07:19.424Z,75.00
2023-03-01T00:12:48.524Z,72.80
2023-03-01T00:34:41.128Z,73.40
2023-03-01T00:40:11.281Z,72.40
2023-03-01T00:56:36.582Z,72.80
2023-03-01T01:02:05.649Z,73.00
2023-03-01T01:07:33.780Z,72.40
2023-03-01T01:13:01.950Z,73.00
2023-03-01T01:24:01.038Z,73.10
2023-03-01T01:29:29.083Z,73.10
2023-03-01T01:34:57.039Z,73.30
2023-03-01T01:40:24.937Z,73.30
2023-03-01T01:46:07.665Z,73.20
2023-03-01T01:51:43.590Z,73.40
2023-03-01T01:57:29.066Z,73.70
2023-03-01T02:03:02.560Z,72.70
2023-03-01T02:08:38.331Z,73.10
2023-03-01T02:14:07.112Z,73.90
2023-03-01T02:20:08.035Z,74.20
2023-03-01T02:26:10.172Z,72.80
2023-03-01T02:31:44.540Z,72.80
2023-03-01T02:37:21.629Z,72.90
2023-03-01T02:42:56.500Z,74.70
2023-03-01T02:54:08.905Z,72.80
2023-03-01T02:59:43.567Z,72.70
2023-03-01T03:05:17.307Z,72.70
2023-03-01T03:16:15.373Z,75.20
2023-03-01T03:21:44.350Z,72.70
2023-03-01T03:32:41.641Z,72.60
2023-03-01T03:38:18.686Z,72.60
2023-03-01T03:43:46.700Z,72.70
2023-03-01T03:49:14.704Z,72.90
2023-03-01T03:54:42.551Z,72.80
2023-03-01T04:00:13.892Z,72.70
2023-03-01T04:11:29.356Z,72.80
2023-03-01T04:39:00.874Z,74.70
2023-03-01T04:44:32.168Z,74.80
2023-03-01T04:50:00.957Z,72.90
2023-03-01T04:55:29.805Z,73.00
2023-03-01T05:00:59.072Z,75.20
2023-03-01T05:11:54.907Z,75.40
2023-03-01T05:22:52.872Z,73.50
2023-03-01T05:28:21.494Z,73.00
2023-03-01T05:39:19.146Z,73.10
2023-03-01T05:44:49.525Z,74.10
2023-03-01T05:50:20.064Z,73.10
2023-03-01T05:55:48.597Z,73.90
2023-03-01T06:17:47.681Z,73.30
2023-03-01T06:34:16.325Z,75.00
2023-03-01T07:12:36.086Z,74.00
2023-03-01T07:18:04.139Z,75.30
2023-03-01T07:23:33.145Z,73.40
2023-03-01T07:29:03.801Z,73.30
2023-03-01T07:40:03.359Z,73.30
2023-03-01T07:45:31.241Z,73.30
2023-03-01T07:51:05.038Z,73.30
2023-03-01T08:02:01.588Z,73.20
2023-03-01T08:18:33.101Z,74.30
2023-03-01T08:24:00.955Z,74.10
2023-03-01T08:29:32.949Z,73.60
2023-03-01T08:40:29.133Z,73.20
2023-03-01T08:45:57.169Z,72.80
2023-03-01T08:51:26.983Z,72.70
2023-03-01T08:56:56.833Z,73.70
2023-03-01T09:18:54.807Z,72.50
2023-03-01T09:24:25.756Z,72.50
2023-03-01T09:35:23.737Z,73.60
2023-03-01T09:52:33.605Z,72.80
2023-03-01T09:58:30.802Z,72.70
2023-03-01T10:04:07.532Z,72.80
2023-03-01T10:09:38.401Z,72.30
2023-03-01T10:15:18.265Z,71.70
2023-03-01T10:26:34.531Z,72.00
2023-03-01T10:32:20.123Z,71.20
2023-03-01T10:38:10.621Z,70.80
2023-03-01T10:43:57.642Z,70.70
2023-03-01T10:49:27.292Z,71.20
2023-03-01T10:55:39.685Z,70.50
2023-03-01T11:01:28.231Z,70.10
2023-03-01T11:07:01.957Z,71.20
2023-03-01T11:23:48.550Z,71.80
2023-03-01T11:29:49.235Z,71.00
2023-03-01T11:35:31.734Z,71.00
2023-03-01T11:41:22.441Z,71.00
2023-03-01T11:47:09.754Z,71.30
2023-03-01T11:53:08.753Z,70.40
2023-03-01T11:58:53.625Z,70.40
2023-03-01T12:05:00.223Z,70.40
2023-03-01T12:10:36.263Z,70.60
2023-03-01T12:16:39.904Z,70.70
2023-03-01T12:22:15.960Z,70.70
2023-03-01T12:28:17.314Z,70.30
2023-03-01T12:34:26.276Z,70.20
2023-03-01T12:40:45.248Z,69.80
2023-03-01T12:46:48.719Z,69.80
2023-03-01T12:52:45.526Z,69.20
2023-03-01T12:58:58.346Z,68.90
2023-03-01T13:10:42.991Z,69.10
2023-03-01T13:16:30.338Z,68.50
2023-03-01T13:33:29.725Z,64.90
2023-03-01T13:44:39.976Z,66.60
2023-03-01T13:50:20.756Z,65.70
2023-03-01T13:56:03.320Z,64.40
2023-03-01T14:01:36.138Z,62.10
2023-03-01T14:07:26.097Z,60.40
2023-03-01T14:13:15.804Z,58.20
2023-03-01T14:19:07.140Z,56.80
2023-03-01T14:24:42.453Z,54.10
2023-03-01T14:30:24.205Z,53.30
2023-03-01T14:35:59.519Z,52.80
2023-03-01T14:41:32.646Z,52.40
2023-03-01T14:47:03.257Z,53.10
2023-03-01T14:52:44.051Z,53.40
2023-03-01T14:58:23.831Z,53.10
2023-03-01T15:03:52.613Z,53.60
2023-03-01T15:20:37.136Z,54.20
2023-03-01T15:26:38.917Z,53.50
2023-03-01T15:32:32.341Z,55.30
2023-03-01T15:38:01.687Z,55.50
2023-03-01T15:43:45.944Z,56.30
2023-03-01T15:49:54.292Z,56.60
2023-03-01T15:55:30.782Z,56.90
2023-03-01T16:01:02.678Z,57.00
2023-03-01T16:06:34.898Z,57.20
2023-03-01T16:17:30.932Z,58.00
2023-03-01T16:23:06.600Z,57.80
2023-03-01T16:39:31.741Z,59.40
2023-03-01T16:44:59.610Z,59.80
2023-03-01T16:50:29.790Z,60.10
2023-03-01T16:56:01.240Z,60.00
2023-03-01T17:01:38.513Z,60.60
2023-03-01T17:07:10.606Z,61.00
2023-03-01T17:40:11.961Z,61.80
2023-03-01T17:45:41.255Z,63.00
2023-03-01T17:51:12.040Z,62.40
2023-03-01T17:56:42.691Z,62.30
2023-03-01T18:02:13.643Z,63.10
2023-03-01T18:18:45.203Z,63.70
2023-03-01T18:29:43.564Z,63.60
2023-03-01T18:40:49.001Z,64.30
2023-03-01T18:46:20.442Z,65.00
2023-03-01T18:51:50.771Z,64.60
2023-03-01T18:57:22.439Z,65.00
2023-03-01T19:02:50.561Z,65.20
2023-03-01T19:08:19.612Z,65.20
2023-03-01T19:24:51.027Z,66.00
2023-03-01T19:46:51.061Z,66.40
2023-03-01T19:52:20.373Z,66.40
2023-03-01T20:19:52.774Z,67.50
2023-03-01T20:31:06.526Z,68.30
2023-03-01T20:36:39.436Z,67.70
2023-03-01T20:42:07.583Z,67.90
2023-03-01T20:47:35.802Z,68.30
2023-03-01T22:16:25.578Z,70.50
2023-03-01T22:21:56.724Z,70.50
2023-03-01T22:49:57.550Z,71.50
2023-03-01T22:55:28.501Z,71.50
2023-03-01T23:12:06.827Z,71.90
2023-03-01T23:17:34.990Z,71.80
2023-03-01T23:23:03.308Z,71.80
2023-03-01T23:33:59.934Z,73.00
2023-03-01T23:39:29.957Z,73.70
2023-03-01T23:44:57.821Z,72.70
2023-03-01T23:50:26.102Z,73.00
2023-03-01T23:55:55.217Z,72.70
